DW7772 Weather Reports


Display with metric or nautical units.
time (UTC)temp
F
wind
direction
speed
MPH
gust
MPH
rain 1hr
in
rain 24hr
in
rain mn
in
humidity
%
barometer
mb
20190320033705 35 179 0.0 0.0 0.00 0.00 0.00 41 1027.5
20190320033205 36 179 0.0 0.0 0.00 0.00 0.00 41 1027.4
20190320032705 36 179 0.0 0.0 0.00 0.00 0.00 41 1027.4
20190320032205 36 179 0.0 0.0 0.00 0.00 0.00 41 1027.3
20190320031705 36 178 0.0 0.0 0.00 0.00 0.00 40 1027.3
20190320031205 36 178 1.0 3.0 0.00 0.00 0.00 40 1027.3
20190320030705 37 179 0.0 2.0 0.00 0.00 0.00 40 1027.2
20190320030205 37 179 0.0 0.0 0.00 0.00 0.00 39 1027.2
20190320025705 37 178 0.0 0.0 0.00 0.00 0.00 39 1027.2
20190320025205 37 179 0.0 0.0 0.00 0.00 0.00 38 1027.0
20190320024704 37 179 0.0 2.0 0.00 0.00 0.00 38 1027.0
20190320024205 37 177 2.0 5.0 0.00 0.00 0.00 38 1026.9
20190320023705 38 87 0.0 2.0 0.00 0.00 0.00 38 1026.8
20190320023205 38 155 0.0 3.0 0.00 0.00 0.00 38 1026.7
20190320022705 38 155 0.0 0.0 0.00 0.00 0.00 37 1026.7
20190320022205 39 0 2.0 6.0 0.00 0.00 0.00 36 1026.6
20190320021705 39 0 3.0 5.0 0.00 0.00 0.00 35 1031.9
20190320021205 39 0 3.0 12.0 0.00 0.00 0.00 34 1026.4
20190320020705 39 155 5.0 13.0 0.00 0.00 0.00 34 1026.3
20190320020205 40 15 3.0 5.0 0.00 0.00 0.00 34 1026.2
20190320015705 40 0 3.0 6.0 0.00 0.00 0.00 32 1026.1
20190320015204 40 155 2.0 8.0 0.00 0.00 0.00 31 1025.8
20190320014705 40 155 3.0 7.0 0.00 0.00 0.00 30 1025.8
20190320014205 40 155 6.0 12.0 0.00 0.00 0.00 30 1025.7
20190320013705 41 150 5.0 9.0 0.00 0.00 0.00 31 1025.7
20190320013204 41 155 6.0 9.0 0.00 0.00 0.00 31 1025.6
20190320012705 41 155 6.0 9.0 0.00 0.00 0.00 31 1025.6
20190320012205 42 134 3.0 5.0 0.00 0.00 0.00 31 1025.4
20190320011704 42 134 2.0 7.0 0.00 0.00 0.00 31 1025.3
20190320011206 42 111 2.0 7.0 0.00 0.00 0.00 31 1025.3
20190320010705 42 18 2.0 8.0 0.00 0.00 0.00 30 1025.2
20190320010205 43 30 5.0 10.0 0.00 0.00 0.00 29 1025.1
20190320005705 43 87 7.0 12.0 0.00 0.00 0.00 29 1025.1
20190320005204 43 134 3.0 7.0 0.00 0.00 0.00 29 1025.0
20190320004705 44 126 3.0 10.0 0.00 0.00 0.00 30 1024.9
20190320004204 44 44 2.0 5.0 0.00 0.00 0.00 30 1024.8
20190320003704 44 56 5.0 9.0 0.00 0.00 0.00 32 1024.7
20190320003204 44 133 3.0 5.0 0.00 0.00 0.00 34 1024.9
20190320002705 45 146 2.0 6.0 0.00 0.00 0.00 34 1024.9
20190320002204 45 146 2.0 8.0 0.00 0.00 0.00 34 1024.8
20190320001705 45 147 1.0 3.0 0.00 0.00 0.00 34 1024.7
20190320001204 45 146 0.0 3.0 0.00 0.00 0.00 33 1024.7
20190320000705 45 147 4.0 10.0 0.00 0.00 0.00 33 1024.7
20190320000234 45 147 3.0 9.0 0.00 0.00 0.00 32 1024.6
20190319235705 45 71 0.0 3.0 0.00 0.00 0.00 33 1024.6
20190319235205 45 48 4.0 5.0 0.00 0.00 0.00 33 1024.6
20190319234705 45 21 4.0 6.0 0.00 0.00 0.00 33 1024.5
20190319234205 45 35 3.0 14.0 0.00 0.00 0.00 33 1024.5
20190319233704 45 138 6.0 12.0 0.00 0.00 0.00 32 1024.3
20190319233205 45 135 5.0 8.0 0.00 0.00 0.00 33 1024.5
20190319232704 45 103 6.0 14.0 0.00 0.00 0.00 33 1024.4
20190319232211 45 128 3.0 12.0 0.00 0.00 0.00 34 1024.3
20190319231705 44 107 2.0 9.0 0.00 0.00 0.00 34 1024.3
20190319231204 44 16 2.0 9.0 0.00 0.00 0.00 34 1024.3
20190319230704 44 124 3.0 7.0 0.00 0.00 0.00 34 1024.3
20190319230204 44 122 2.0 7.0 0.00 0.00 0.00 35 1024.3
20190319225704 44 122 5.0 12.0 0.00 0.00 0.00 35 1024.3
20190319225204 44 8 4.0 8.0 0.00 0.00 0.00 35 1024.1
20190319224705 44 128 6.0 10.0 0.00 0.00 0.00 35 1024.1
20190319224204 44 125 4.0 12.0 0.00 0.00 0.00 36 1024.1
20190319223704 44 126 5.0 9.0 0.00 0.00 0.00 37 1024.0
20190319223205 43 127 7.0 12.0 0.00 0.00 0.00 37 1024.1
20190319222704 43 62 8.0 12.0 0.00 0.00 0.00 37 1024.0
20190319222204 44 94 8.0 15.0 0.00 0.00 0.00 35 1024.0
20190319221705 44 32 9.0 20.0 0.00 0.00 0.00 36 1023.9
20190319221204 44 46 12.0 18.0 0.00 0.00 0.00 34 1023.9
20190319220704 44 129 2.0 9.0 0.00 0.00 0.00 35 1023.7
20190319220205 44 128 5.0 10.0 0.00 0.00 0.00 36 1024.2
20190319215705 44 54 2.0 12.0 0.00 0.00 0.00 37 1024.2
20190319215204 43 126 7.0 12.0 0.00 0.00 0.00 36 1023.9
20190319214704 43 64 9.0 12.0 0.00 0.00 0.00 38 1023.8
20190319214205 43 35 10.0 14.0 0.00 0.00 0.00 38 1023.8
20190319213704 43 100 7.0 12.0 0.00 0.00 0.00 39 1023.8
20190319213205 43 62 7.0 14.0 0.00 0.00 0.00 39 1023.8
20190319212705 44 27 12.0 16.0 0.00 0.00 0.00 38 1024.2
20190319212205 44 71 9.0 13.0 0.00 0.00 0.00 38 1024.1
20190319211709 45 45 9.0 16.0 0.00 0.00 0.00 38 1024.0
20190319211204 45 124 9.0 15.0 0.00 0.00 0.00 37 1024.0
20190319210705 46 147 6.0 10.0 0.00 0.00 0.00 37 1023.9
20190319210210 48 155 10.0 13.0 0.00 0.00 0.00 35 1024.1
20190319205704 48 39 3.0 6.0 0.00 0.00 0.00 36 1024.1
20190319205207 47 170 3.0 8.0 0.00 0.00 0.00 37 1024.1
20190319204705 46 59 4.0 10.0 0.00 0.00 0.00 37 1024.3
20190319204206 46 116 1.0 7.0 0.00 0.00 0.00 38 1024.3
20190319203705 46 9 3.0 6.0 0.00 0.00 0.00 40 1024.4
20190319202704 45 52 8.0 12.0 0.00 0.00 0.00 39 1024.3
20190319202204 46 44 2.0 12.0 0.00 0.00 0.00 39 1024.8
20190319201704 45 34 11.0 15.0 0.00 0.00 0.00 39 1024.6
20190319201204 45 7 6.0 12.0 0.00 0.00 0.00 39 1024.6
20190319200704 45 69 2.0 10.0 0.00 0.00 0.00 42 1024.6
20190319200205 45 44 3.0 7.0 0.00 0.00 0.00 44 1024.8
20190319195704 45 54 5.0 9.0 0.00 0.00 0.00 44 1024.8
20190319195204 44 80 1.0 5.0 0.00 0.00 0.00 47 1024.9
20190319194704 42 128 3.0 8.0 0.00 0.00 0.00 47 1025.0
20190319194204 42 72 6.0 12.0 0.00 0.00 0.00 47 1025.1
20190319193704 43 32 6.0 13.0 0.00 0.00 0.00 47 1025.0
20190319193205 43 51 5.0 13.0 0.00 0.00 0.00 46 1025.1
20190319192704 43 75 7.0 10.0 0.00 0.00 0.00 45 1025.2
20190319192204 43 16 7.0 12.0 0.00 0.00 0.00 45 1025.2
20190319191704 43 28 8.0 12.0 0.00 0.00 0.00 45 1025.3
20190319191205 44 8 4.0 10.0 0.00 0.00 0.00 44 1025.3
20190319190704 45 25 6.0 12.0 0.00 0.00 0.00 43 1025.3
20190319190204 44 61 3.0 12.0 0.00 0.00 0.00 44 1025.4
20190319185204 43 105 6.0 10.0 0.00 0.00 0.00 46 1025.4
20190319184704 43 27 7.0 13.0 0.00 0.00 0.00 46 1025.3
20190319184205 43 168 3.0 8.0 0.00 0.00 0.00 47 1025.4
20190319183704 42 167 2.0 9.0 0.00 0.00 0.00 48 1025.4
20190319183204 41 167 7.0 12.0 0.00 0.00 0.00 49 1025.4
20190319182704 41 168 4.0 8.0 0.00 0.00 0.00 48 1025.4
20190319182204 41 167 6.0 12.0 0.00 0.00 0.00 49 1025.4
20190319181704 42 167 6.0 10.0 0.00 0.00 0.00 49 1025.5
20190319181204 41 168 5.0 9.0 0.00 0.00 0.00 50 1025.5
20190319180704 41 167 3.0 9.0 0.00 0.00 0.00 51 1025.6
20190319180204 41 167 8.0 12.0 0.00 0.00 0.00 50 1025.5
20190319175704 41 167 2.0 9.0 0.00 0.00 0.00 51 1025.5
20190319175204 41 167 6.0 10.0 0.00 0.00 0.00 52 1025.5
20190319174704 41 167 6.0 10.0 0.00 0.00 0.00 52 1025.5
20190319174204 40 167 7.0 12.0 0.00 0.00 0.00 52 1025.5
20190319173705 40 167 5.0 8.0 0.00 0.00 0.00 52 1025.6
20190319173204 40 167 7.0 12.0 0.00 0.00 0.00 52 1025.4
20190319172705 40 167 6.0 12.0 0.00 0.00 0.00 51 1025.4
20190319172205 40 167 6.0 12.0 0.00 0.00 0.00 51 1025.4
20190319171704 40 167 8.0 14.0 0.00 0.00 0.00 51 1025.4
20190319171204 41 167 8.0 15.0 0.00 0.00 0.00 51 1025.5
20190319170704 41 171 7.0 12.0 0.00 0.00 0.00 50 1025.5
20190319170204 41 172 6.0 13.0 0.00 0.00 0.00 50 1025.4
20190319165704 41 172 5.0 13.0 0.00 0.00 0.00 50 1025.4
20190319165204 41 172 6.0 10.0 0.00 0.00 0.00 50 1025.3
20190319164704 41 174 7.0 12.0 0.00 0.00 0.00 50 1025.4
20190319164204 41 173 6.0 9.0 0.00 0.00 0.00 50 1025.5
20190319163704 41 173 6.0 9.0 0.00 0.00 0.00 50 1025.4
20190319163204 40 173 5.0 12.0 0.00 0.00 0.00 51 1025.5
20190319162704 41 173 8.0 10.0 0.00 0.00 0.00 50 1025.5
20190319162204 40 173 5.0 10.0 0.00 0.00 0.00 52 1025.7
20190319161704 40 173 5.0 10.0 0.00 0.00 0.00 52 1025.6
20190319161204 40 173 7.0 12.0 0.00 0.00 0.00 51 1025.6
20190319160704 39 173 7.0 12.0 0.00 0.00 0.00 52 1025.7
20190319160204 39 173 4.0 8.0 0.00 0.00 0.00 52 1025.3
20190319155704 39 173 7.0 10.0 0.00 0.00 0.00 52 1025.2
20190319155204 39 173 6.0 12.0 0.00 0.00 0.00 51 1025.2
20190319154704 38 173 5.0 10.0 0.00 0.00 0.00 51 1025.2
20190319154204 38 173 7.0 12.0 0.00 0.00 0.00 51 1025.1
20190319153704 39 173 8.0 12.0 0.00 0.00 0.00 52 1025.1
20190319153204 38 173 8.0 12.0 0.00 0.00 0.00 54 1025.1
20190319152704 38 173 11.0 14.0 0.00 0.00 0.00 54 1025.0
20190319152204 38 175 9.0 13.0 0.00 0.00 0.00 56 1025.0
20190319151704 38 175 9.0 14.0 0.00 0.00 0.00 58 1025.0
20190319151204 38 152 10.0 13.0 0.00 0.00 0.00 59 1025.1
20190319150704 38 147 6.0 12.0 0.00 0.00 0.00 60 1025.0
20190319150204 38 147 5.0 12.0 0.00 0.00 0.00 64 1024.9
20190319145704 38 147 5.0 12.0 0.00 0.00 0.00 63 1024.8
20190319145204 38 147 7.0 10.0 0.00 0.00 0.00 62 1024.8
20190319144704 39 147 5.0 8.0 0.00 0.00 0.00 61 1024.8
20190319144204 39 148 3.0 5.0 0.00 0.00 0.00 58 1024.6
20190319143704 39 142 3.0 6.0 0.00 0.00 0.00 61 1024.6
20190319143204 38 9 0.0 1.0 0.00 0.00 0.00 63 1024.6
20190319142704 37 10 1.0 3.0 0.00 0.00 0.00 65 1024.6
20190319142204 36 2 0.0 0.0 0.00 0.00 0.00 66 1024.6
20190319141704 35 9 1.0 3.0 0.00 0.00 0.00 68 1024.6
20190319141204 34 15 1.0 2.0 0.00 0.00 0.00 69 1024.6
20190319140704 34 0 0.0 3.0 0.00 0.00 0.00 70 1024.5
20190319140204 33 0 0.0 0.0 0.00 0.00 0.00 69 1024.4
20190319135704 33 0 0.0 0.0 0.00 0.00 0.00 69 1024.3
20190319135204 33 0 0.0 2.0 0.00 0.00 0.00 69 1024.3
20190319134704 33 0 0.0 3.0 0.00 0.00 0.00 69 1024.2
20190319134204 33 8 0.0 0.0 0.00 0.00 0.00 69 1024.2
20190319133704 33 15 0.0 0.0 0.00 0.00 0.00 69 1024.3
20190319133204 33 15 0.0 1.0 0.00 0.00 0.00 69 1024.2
20190319132704 33 15 1.0 3.0 0.00 0.00 0.00 70 1024.3
20190319132204 32 0 1.0 3.0 0.00 0.00 0.00 70 1024.3
20190319131704 33 0 0.0 0.0 0.00 0.00 0.00 71 1024.3
20190319131203 33 0 0.0 0.0 0.00 0.00 0.00 71 1024.3
20190319130704 33 0 0.0 0.0 0.00 0.00 0.00 71 1024.3
20190319130204 33 0 0.0 0.0 0.00 0.00 0.00 71 1023.8
20190319125706 33 0 0.0 3.0 0.00 0.00 0.00 71 1023.8
20190319125206 33 28 2.0 5.0 0.00 0.00 0.00 71 1023.7
20190319124706 33 23 3.0 5.0 0.00 0.00 0.00 72 1023.8
20190319124206 33 0 3.0 5.0 0.00 0.00 0.00 73 1023.8
20190319123706 33 0 0.0 3.0 0.00 0.00 0.00 73 1023.8
20190319123207 32 0 2.0 3.0 0.00 0.00 0.00 74 1023.8
20190319122706 32 2 2.0 3.0 0.00 0.00 0.00 76 1023.8
20190319122206 32 13 0.0 0.0 0.00 0.00 0.00 76 1023.9
20190319121707 32 0 0.0 3.0 0.00 0.00 0.00 78 1023.8
20190319121206 31 0 1.0 3.0 0.00 0.00 0.00 78 1023.9
20190319120706 31 0 0.0 0.0 0.00 0.00 0.00 79 1023.8
20190319120206 31 0 0.0 0.0 0.00 0.00 0.00 79 1023.7
20190319115706 31 0 0.0 0.0 0.00 0.00 0.00 79 1023.7
20190319115206 30 0 0.0 0.0 0.00 0.00 0.00 79 1023.6
20190319114706 30 0 0.0 0.0 0.00 0.00 0.00 79 1023.5
20190319114206 30 0 0.0 0.0 0.00 0.00 0.00 79 1023.5
20190319113706 30 0 0.0 0.0 0.00 0.00 0.00 79 1023.5
20190319113206 30 0 0.0 0.0 0.00 0.00 0.00 79 1023.5
20190319112706 30 0 0.0 0.0 0.00 0.00 0.00 78 1023.4
20190319112205 30 0 0.0 0.0 0.00 0.00 0.00 79 1023.4
20190319111705 30 0 0.0 0.0 0.00 0.00 0.00 79 1023.4
20190319111206 29 0 0.0 0.0 0.00 0.00 0.00 79 1023.3
20190319110706 29 0 0.0 0.0 0.00 0.00 0.00 78 1023.2
20190319110205 29 0 0.0 0.0 0.00 0.00 0.00 78 1023.1
20190319105706 29 0 0.0 0.0 0.00 0.00 0.00 78 1023.1
20190319105206 29 0 0.0 0.0 0.00 0.00 0.00 78 1023.1
20190319104706 30 0 0.0 0.0 0.00 0.00 0.00 78 1023.1
20190319104205 30 0 0.0 0.0 0.00 0.00 0.00 78 1023.2
20190319103705 30 0 0.0 0.0 0.00 0.00 0.00 77 1023.2
20190319103206 30 0 0.0 0.0 0.00 0.00 0.00 77 1023.1
20190319102706 30 0 0.0 0.0 0.00 0.00 0.00 77 1023.1
20190319102206 30 0 0.0 0.0 0.00 0.00 0.00 77 1023.0
20190319101707 30 0 0.0 0.0 0.00 0.00 0.00 76 1023.0
20190319101206 31 0 0.0 0.0 0.00 0.00 0.00 75 1022.9
20190319100705 31 0 0.0 0.0 0.00 0.00 0.00 75 1022.9
20190319100208 32 0 0.0 0.0 0.00 0.00 0.00 75 1022.9
20190319095705 32 0 0.0 0.0 0.00 0.00 0.00 75 1022.9
20190319095206 32 0 0.0 0.0 0.00 0.00 0.00 75 1022.9
20190319094706 32 0 0.0 0.0 0.00 0.00 0.00 75 1023.1
20190319094206 32 0 0.0 0.0 0.00 0.00 0.00 75 1023.1
20190319093706 32 0 0.0 0.0 0.00 0.00 0.00 74 1023.2
20190319093206 33 0 0.0 0.0 0.00 0.00 0.00 73 1023.3
20190319092705 33 0 0.0 0.0 0.00 0.00 0.00 73 1023.3
20190319092205 34 0 0.0 0.0 0.00 0.00 0.00 72 1023.3
20190319091705 35 0 0.0 0.0 0.00 0.00 0.00 71 1023.3
20190319091205 35 0 0.0 0.0 0.00 0.00 0.00 71 1023.4
20190319090706 35 0 0.0 0.0 0.00 0.00 0.00 71 1023.5
20190319090205 35 0 0.0 0.0 0.00 0.00 0.00 71 1023.5
20190319085705 36 0 0.0 0.0 0.00 0.00 0.00 71 1023.5
20190319085206 36 0 0.0 0.0 0.00 0.00 0.00 72 1023.7
20190319084705 36 0 0.0 0.0 0.00 0.00 0.00 72 1023.7
20190319084205 36 0 0.0 0.0 0.00 0.00 0.00 72 1023.7
20190319083706 36 0 0.0 0.0 0.00 0.00 0.00 72 1023.7
20190319083206 36 0 0.0 0.0 0.00 0.00 0.00 71 1023.7
20190319082706 36 0 0.0 0.0 0.00 0.00 0.00 71 1023.7
20190319082205 36 0 0.0 0.0 0.00 0.00 0.00 71 1023.8
20190319081705 36 0 0.0 0.0 0.00 0.00 0.00 71 1023.8
20190319081205 36 0 0.0 0.0 0.00 0.00 0.00 71 1023.8
20190319080706 36 0 0.0 0.0 0.00 0.00 0.00 71 1023.7
20190319080205 36 0 0.0 0.0 0.00 0.00 0.00 71 1023.7
20190319075706 36 0 0.0 0.0 0.00 0.00 0.00 71 1023.8
20190319075205 36 0 0.0 0.0 0.00 0.00 0.00 71 1023.7
20190319074705 36 0 0.0 0.0 0.00 0.00 0.00 72 1023.7
20190319074205 37 0 0.0 0.0 0.00 0.00 0.00 71 1023.7
20190319073706 37 0 0.0 0.0 0.00 0.00 0.00 71 1023.5
20190319073206 37 0 0.0 0.0 0.00 0.00 0.00 71 1023.6
20190319072705 37 0 0.0 0.0 0.00 0.00 0.00 70 1023.6
20190319072205 37 0 0.0 0.0 0.00 0.00 0.00 70 1023.6
20190319071705 37 0 0.0 0.0 0.00 0.00 0.00 70 1023.6
20190319071205 37 0 0.0 0.0 0.00 0.00 0.00 69 1023.6
20190319070706 37 0 0.0 0.0 0.00 0.00 0.00 68 1023.6
20190319070206 37 0 0.0 0.0 0.00 0.00 0.00 67 1023.7
20190319065705 38 0 0.0 0.0 0.00 0.00 0.00 66 1023.7
20190319065205 38 0 0.0 0.0 0.00 0.00 0.00 65 1023.8
20190319064705 38 0 0.0 0.0 0.00 0.00 0.00 65 1023.8
20190319064206 38 0 0.0 0.0 0.00 0.00 0.00 64 1023.6
20190319063706 38 0 0.0 0.0 0.00 0.00 0.00 64 1023.6
20190319063206 38 0 0.0 0.0 0.00 0.00 0.00 64 1023.6
20190319062705 38 0 0.0 0.0 0.00 0.00 0.00 63 1023.7
20190319062205 38 0 0.0 0.0 0.00 0.00 0.00 63 1023.7
20190319061705 38 0 1.0 3.0 0.00 0.00 0.00 64 1023.8
20190319061205 38 0 0.0 0.0 0.00 0.00 0.00 64 1023.8
20190319060706 38 1 0.0 0.0 0.00 0.00 0.00 65 1023.8
20190319060205 38 0 1.0 5.0 0.00 0.00 0.00 66 1023.8
20190319055706 38 0 0.0 1.0 0.00 0.00 0.00 67 1023.9
20190319055205 37 0 0.0 6.0 0.00 0.00 0.00 69 1023.9
20190319054705 37 0 5.0 8.0 0.00 0.00 0.00 69 1024.0
20190319054205 37 0 3.0 3.0 0.00 0.00 0.00 68 1023.9
20190319053706 38 0 3.0 5.0 0.00 0.00 0.00 67 1024.0
20190319053205 38 0 3.0 6.0 0.00 0.00 0.00 65 1023.9
20190319052706 39 0 2.0 6.0 0.00 0.00 0.00 64 1023.9
20190319052205 39 0 1.0 8.0 0.00 0.00 0.00 63 1023.8
20190319051705 39 0 3.0 6.0 0.00 0.00 0.00 62 1023.7
20190319051205 39 0 3.0 13.0 0.00 0.00 0.00 62 1023.7
20190319050705 39 0 4.0 10.0 0.00 0.00 0.00 63 1023.8
20190319050205 40 0 6.0 10.0 0.00 0.00 0.00 64 1023.8
20190319045705 40 0 3.0 7.0 0.00 0.00 0.00 62 1023.7
20190319045205 40 51 3.0 6.0 0.00 0.00 0.00 62 1023.7
20190319044705 40 53 4.0 9.0 0.00 0.00 0.00 62 1023.6
20190319044205 40 51 5.0 7.0 0.00 0.00 0.00 64 1023.5
20190319043705 40 0 3.0 6.0 0.00 0.00 0.00 65 1023.6
20190319043205 40 0 3.0 6.0 0.00 0.00 0.00 65 1023.6
20190319042705 41 0 0.0 3.0 0.00 0.00 0.00 65 1023.4
20190319042205 41 0 3.0 5.0 0.00 0.00 0.00 65 1023.4
20190319041706 41 0 2.0 5.0 0.00 0.00 0.00 65 1023.3
20190319041205 41 0 3.0 6.0 0.00 0.00 0.00 65 1023.4
20190319040705 41 0 4.0 6.0 0.00 0.00 0.00 64 1023.4
20190319040205 40 0 3.0 9.0 0.00 0.00 0.00 65 1023.3
20190319035705 40 0 5.0 10.0 0.00 0.00 0.00 66 1023.2
20190319035205 39 0 3.0 6.0 0.00 0.00 0.00 67 1023.2
20190319034705 39 0 2.0 3.0 0.00 0.00 0.00 66 1023.0
20190319034206 39 0 2.0 5.0 0.00 0.00 0.00 66 1022.9